createdAt,value
2023-01-29T00:00:23.999Z,80.39
2023-01-29T00:02:53.216Z,80.55
2023-01-29T00:05:28.022Z,80.33
2023-01-29T00:07:57.197Z,80.54
2023-01-29T00:10:26.115Z,80.66
2023-01-29T00:12:54.698Z,80.63
2023-01-29T00:15:23.508Z,80.52
2023-01-29T00:17:52.173Z,80.64
2023-01-29T00:20:20.875Z,80.84
2023-01-29T00:22:50.164Z,80.72
2023-01-29T00:25:18.638Z,80.94
2023-01-29T00:27:47.579Z,80.98
2023-01-29T00:30:19.956Z,81.04
2023-01-29T00:32:48.709Z,80.94
2023-01-29T00:35:17.679Z,81.16
2023-01-29T00:37:46.264Z,80.94
2023-01-29T00:40:15.426Z,80.86
2023-01-29T00:43:04.349Z,81.12
2023-01-29T00:45:34.679Z,81.21
2023-01-29T00:48:03.949Z,80.78
2023-01-29T00:50:32.637Z,80.98
2023-01-29T00:53:01.551Z,81.03
2023-01-29T00:55:30.103Z,81.10
2023-01-29T00:57:58.687Z,81.09
2023-01-29T01:00:27.674Z,81.06
2023-01-29T01:03:08.557Z,80.91
2023-01-29T01:05:39.607Z,80.87
2023-01-29T01:08:28.038Z,80.98
2023-01-29T01:11:04.630Z,81.07
2023-01-29T01:13:34.577Z,81.43
2023-01-29T01:16:16.373Z,81.52
2023-01-29T01:18:45.108Z,81.42
2023-01-29T01:21:13.588Z,81.27
2023-01-29T01:23:42.275Z,81.46
2023-01-29T01:26:11.373Z,81.92
2023-01-29T01:28:39.953Z,81.87
2023-01-29T01:31:12.573Z,82.08
2023-01-29T01:33:41.345Z,82.09
2023-01-29T01:36:10.140Z,82.23
2023-01-29T01:38:45.461Z,82.33
2023-01-29T01:41:15.768Z,82.69
2023-01-29T01:44:04.404Z,83.12
2023-01-29T01:46:37.102Z,83.31
2023-01-29T01:49:18.539Z,83.39
2023-01-29T01:51:51.058Z,83.38
2023-01-29T01:54:29.163Z,83.80
2023-01-29T01:57:09.341Z,83.70
2023-01-29T01:59:39.279Z,83.84
2023-01-29T02:02:26.605Z,84.13
2023-01-29T02:05:13.901Z,84.17
2023-01-29T02:08:05.397Z,83.97
2023-01-29T02:10:38.487Z,84.02
2023-01-29T02:13:07.201Z,84.32
2023-01-29T02:15:36.369Z,84.09
2023-01-29T02:18:05.263Z,84.02
2023-01-29T02:20:33.946Z,84.03
2023-01-29T02:23:23.621Z,84.29
2023-01-29T02:26:10.741Z,84.29
2023-01-29T02:29:19.678Z,84.26
2023-01-29T02:31:58.135Z,84.17
2023-01-29T02:34:52.791Z,84.34
2023-01-29T02:37:26.071Z,84.15
2023-01-29T02:40:02.095Z,84.62
2023-01-29T02:42:36.353Z,84.75
2023-01-29T02:45:14.042Z,84.74
2023-01-29T02:47:49.280Z,84.39
2023-01-29T02:50:20.984Z,84.55
2023-01-29T02:53:07.236Z,84.25
2023-01-29T02:55:38.070Z,84.60
2023-01-29T02:58:41.879Z,84.61
2023-01-29T03:01:23.922Z,84.68
2023-01-29T03:03:56.928Z,84.49
2023-01-29T03:06:38.045Z,84.77
2023-01-29T03:09:23.519Z,84.78
2023-01-29T03:11:53.536Z,84.84
2023-01-29T03:14:54.279Z,84.73
2023-01-29T03:17:26.223Z,84.85
2023-01-29T03:19:55.024Z,84.76
2023-01-29T03:22:24.021Z,85.27
2023-01-29T03:25:18.718Z,85.11
2023-01-29T03:28:13.051Z,85.00
2023-01-29T03:31:06.719Z,84.93
2023-01-29T03:33:54.498Z,85.14
2023-01-29T03:36:38.409Z,85.25
2023-01-29T03:39:07.906Z,85.17
2023-01-29T03:41:42.915Z,85.22
2023-01-29T03:44:18.434Z,85.40
2023-01-29T03:47:22.956Z,85.05
2023-01-29T03:50:00.959Z,85.40
2023-01-29T03:52:46.653Z,85.21
2023-01-29T03:55:23.322Z,85.24
2023-01-29T03:57:55.176Z,85.18
2023-01-29T04:00:34.920Z,85.19
2023-01-29T04:03:27.058Z,85.59
2023-01-29T04:06:05.713Z,85.58
2023-01-29T04:08:56.887Z,85.45
2023-01-29T04:11:27.223Z,85.35
2023-01-29T04:13:56.615Z,85.50
2023-01-29T04:16:29.330Z,85.49
2023-01-29T04:19:16.518Z,85.36
2023-01-29T04:21:45.405Z,85.23
2023-01-29T04:24:15.521Z,85.39
2023-01-29T04:27:00.185Z,85.47
2023-01-29T04:29:54.573Z,85.60
2023-01-29T04:32:58.523Z,85.46
2023-01-29T04:35:32.213Z,85.42
2023-01-29T04:38:25.447Z,85.48
2023-01-29T04:40:54.028Z,85.31
2023-01-29T04:43:41.461Z,85.48
2023-01-29T04:46:17.920Z,85.50
2023-01-29T04:48:46.405Z,85.42
2023-01-29T04:51:25.634Z,85.22
2023-01-29T04:54:07.018Z,85.43
2023-01-29T04:57:02.856Z,85.36
2023-01-29T04:59:33.712Z,85.23
2023-01-29T05:02:02.821Z,85.25
2023-01-29T05:04:32.796Z,85.14
2023-01-29T05:07:05.263Z,85.25
2023-01-29T05:09:33.757Z,85.09
2023-01-29T05:12:02.537Z,85.39
2023-01-29T05:14:31.335Z,85.36
2023-01-29T05:17:00.210Z,85.28
2023-01-29T05:19:29.207Z,85.16
2023-01-29T05:21:58.088Z,85.24
2023-01-29T05:24:26.836Z,85.57
2023-01-29T05:27:17.615Z,85.78
2023-01-29T05:29:47.199Z,85.75
2023-01-29T05:32:16.089Z,85.53
2023-01-29T05:34:44.725Z,85.47
2023-01-29T05:37:13.352Z,85.20
2023-01-29T05:39:41.932Z,85.39
2023-01-29T05:42:10.429Z,85.52
2023-01-29T05:44:39.199Z,85.25
2023-01-29T05:47:07.687Z,85.24
2023-01-29T05:49:38.628Z,85.35
2023-01-29T05:52:07.510Z,85.29
2023-01-29T05:54:36.195Z,84.90
2023-01-29T05:57:04.879Z,84.84
2023-01-29T05:59:33.778Z,84.75
2023-01-29T06:02:02.839Z,84.66
2023-01-29T06:04:31.761Z,84.20
2023-01-29T06:07:03.826Z,84.45
2023-01-29T06:09:33.125Z,84.16
2023-01-29T06:12:03.444Z,84.23
2023-01-29T06:14:32.452Z,84.00
2023-01-29T06:17:01.841Z,83.77
2023-01-29T06:19:30.733Z,83.85
2023-01-29T06:21:59.524Z,83.95
2023-01-29T06:24:28.225Z,83.89
2023-01-29T06:26:56.892Z,83.59
2023-01-29T06:29:25.572Z,83.44
2023-01-29T06:31:54.161Z,83.50
2023-01-29T06:34:25.949Z,83.36
2023-01-29T06:36:54.605Z,83.30
2023-01-29T06:39:23.490Z,83.13
2023-01-29T06:41:52.277Z,82.91
2023-01-29T06:44:21.585Z,82.53
2023-01-29T06:46:50.168Z,82.69
2023-01-29T06:49:18.848Z,82.72
2023-01-29T06:51:48.866Z,82.44
2023-01-29T06:54:17.674Z,82.24
2023-01-29T06:56:46.747Z,82.11
2023-01-29T06:59:15.537Z,81.89
2023-01-29T07:01:44.683Z,81.83
2023-01-29T07:04:13.629Z,81.97
2023-01-29T07:06:42.453Z,82.11
2023-01-29T07:09:14.112Z,81.47
2023-01-29T07:11:42.592Z,81.27
2023-01-29T07:14:11.240Z,81.80
2023-01-29T07:16:40.178Z,80.93
2023-01-29T07:19:10.036Z,80.64
2023-01-29T07:21:39.442Z,80.42
2023-01-29T07:24:08.567Z,80.09
2023-01-29T07:26:37.863Z,79.70
2023-01-29T07:29:07.784Z,79.41
2023-01-29T07:31:37.457Z,79.76
2023-01-29T07:34:06.143Z,79.68
2023-01-29T07:36:34.785Z,79.16
2023-01-29T07:39:03.636Z,78.92
2023-01-29T07:41:32.920Z,78.64
2023-01-29T07:44:01.603Z,79.07
2023-01-29T07:46:30.504Z,78.65
2023-01-29T07:49:01.667Z,78.20
2023-01-29T07:51:30.633Z,77.98
2023-01-29T07:53:59.112Z,78.25
2023-01-29T07:56:28.615Z,77.95
2023-01-29T07:58:57.048Z,77.69
2023-01-29T08:01:25.966Z,78.00
2023-01-29T08:03:54.672Z,77.98
2023-01-29T08:06:23.304Z,77.92
2023-01-29T08:08:56.351Z,78.28
2023-01-29T08:11:28.617Z,78.10
2023-01-29T08:14:00.271Z,77.84
2023-01-29T08:16:29.191Z,78.19
2023-01-29T08:18:58.461Z,77.84
2023-01-29T08:21:26.940Z,77.51
2023-01-29T08:23:55.559Z,77.74
2023-01-29T08:26:26.720Z,77.73
2023-01-29T08:28:55.249Z,77.55
2023-01-29T08:31:24.390Z,77.73
2023-01-29T08:33:56.026Z,77.74
2023-01-29T08:36:24.933Z,77.96
2023-01-29T08:38:53.574Z,77.80
2023-01-29T08:41:23.535Z,77.60
2023-01-29T08:43:52.203Z,77.44
2023-01-29T08:46:21.109Z,77.00
2023-01-29T08:48:49.853Z,76.71
2023-01-29T08:51:19.267Z,76.57
2023-01-29T08:53:50.591Z,76.53
2023-01-29T08:56:19.492Z,76.67
2023-01-29T08:58:47.992Z,76.95
2023-01-29T09:01:18.023Z,76.61
2023-01-29T09:03:47.295Z,76.52
2023-01-29T09:06:17.101Z,76.31
2023-01-29T09:08:50.805Z,76.86
2023-01-29T09:11:20.432Z,76.67
2023-01-29T09:13:49.310Z,76.22
2023-01-29T09:16:18.784Z,76.30
2023-01-29T09:18:47.596Z,76.16
2023-01-29T09:21:16.383Z,76.01
2023-01-29T09:23:45.289Z,75.81
2023-01-29T09:26:13.935Z,75.65
2023-01-29T09:28:43.378Z,76.05
2023-01-29T09:31:12.138Z,76.15
2023-01-29T09:33:40.742Z,75.78
2023-01-29T09:36:10.010Z,75.57
2023-01-29T09:38:38.615Z,75.99
2023-01-29T09:41:35.840Z,76.29
2023-01-29T09:44:11.009Z,76.08
2023-01-29T09:46:41.442Z,76.07
2023-01-29T09:49:33.248Z,76.32
2023-01-29T09:52:05.536Z,76.46
2023-01-29T09:54:51.702Z,76.20
2023-01-29T09:57:27.529Z,76.29
2023-01-29T09:59:55.981Z,76.01
2023-01-29T10:02:37.137Z,75.76
2023-01-29T10:05:13.462Z,75.54
2023-01-29T10:07:51.203Z,75.29
2023-01-29T10:10:39.759Z,75.63
2023-01-29T10:13:21.746Z,75.91
2023-01-29T10:15:59.386Z,75.72
2023-01-29T10:19:07.760Z,76.04
2023-01-29T10:22:05.323Z,75.60
2023-01-29T10:30:23.911Z,75.69
2023-01-29T10:46:47.288Z,76.03
2023-01-29T10:49:38.682Z,75.72
2023-01-29T10:52:13.100Z,75.85
2023-01-29T10:55:03.609Z,76.27
2023-01-29T10:57:32.418Z,75.78
2023-01-29T11:00:24.232Z,75.43
2023-01-29T11:02:53.015Z,75.60
2023-01-29T11:05:32.077Z,75.61
2023-01-29T11:08:16.066Z,75.65
2023-01-29T11:10:52.329Z,75.99
2023-01-29T11:13:22.359Z,75.96
2023-01-29T11:15:53.090Z,75.88
2023-01-29T11:18:22.801Z,75.61
2023-01-29T11:21:02.399Z,75.60
2023-01-29T11:23:33.915Z,75.18
2023-01-29T11:26:05.238Z,74.73
2023-01-29T11:28:37.310Z,74.90
2023-01-29T11:31:21.345Z,74.51
2023-01-29T11:34:02.647Z,74.03
2023-01-29T11:36:39.423Z,74.01
2023-01-29T11:39:15.467Z,74.21
2023-01-29T11:41:45.881Z,74.47
2023-01-29T11:44:21.345Z,75.03
2023-01-29T11:46:51.661Z,75.06
2023-01-29T11:49:34.890Z,75.36
2023-01-29T11:52:05.680Z,75.04
2023-01-29T11:54:58.381Z,74.58
2023-01-29T11:57:30.697Z,74.89
2023-01-29T12:00:25.538Z,74.48
2023-01-29T12:03:06.115Z,74.54
2023-01-29T12:05:35.826Z,74.48
2023-01-29T12:08:10.704Z,74.15
2023-01-29T12:10:41.671Z,74.40
2023-01-29T12:13:10.857Z,74.30
2023-01-29T12:15:41.310Z,74.19
2023-01-29T12:18:42.556Z,74.56
2023-01-29T12:21:11.526Z,74.46
2023-01-29T12:31:29.751Z,74.76
2023-01-29T12:34:31.955Z,74.84
2023-01-29T12:37:11.348Z,74.43
2023-01-29T12:39:42.152Z,74.71
2023-01-29T12:42:18.222Z,74.86
2023-01-29T12:44:49.158Z,74.41
2023-01-29T12:47:37.735Z,74.57
2023-01-29T12:50:28.229Z,74.59
2023-01-29T12:53:00.160Z,74.55
2023-01-29T12:55:33.742Z,74.48
2023-01-29T12:58:12.168Z,75.08
2023-01-29T13:00:44.574Z,75.11
2023-01-29T13:03:27.562Z,75.54
2023-01-29T13:06:17.484Z,75.77
2023-01-29T13:09:02.565Z,75.77
2023-01-29T13:12:19.524Z,75.35
2023-01-29T13:14:52.249Z,75.37
2023-01-29T13:17:36.936Z,75.61
2023-01-29T13:20:18.806Z,75.68
2023-01-29T13:22:49.129Z,75.91
2023-01-29T13:25:18.814Z,75.26
2023-01-29T13:27:48.143Z,75.58
2023-01-29T13:30:35.927Z,75.33
2023-01-29T13:33:11.709Z,75.40
2023-01-29T13:36:02.001Z,75.34
2023-01-29T13:38:33.432Z,75.52
2023-01-29T13:41:04.098Z,75.39
2023-01-29T13:43:41.963Z,75.20
2023-01-29T13:46:14.504Z,74.97
2023-01-29T13:48:48.511Z,74.85
2023-01-29T13:51:21.011Z,74.90
2023-01-29T14:00:22.455Z,75.51
2023-01-29T14:03:00.272Z,75.54
2023-01-29T14:05:41.535Z,75.87
2023-01-29T14:08:10.326Z,76.11
2023-01-29T14:10:41.972Z,75.44
2023-01-29T14:13:19.820Z,75.93
2023-01-29T14:16:04.844Z,75.66
2023-01-29T14:19:01.950Z,75.82
2023-01-29T14:21:36.222Z,75.58
2023-01-29T14:24:22.979Z,75.97
2023-01-29T14:26:57.078Z,75.53
2023-01-29T14:29:35.094Z,75.60
2023-01-29T14:32:25.208Z,75.75
2023-01-29T14:35:01.846Z,75.29
2023-01-29T14:37:35.360Z,75.58
2023-01-29T14:40:19.970Z,75.49
2023-01-29T14:43:09.482Z,75.66
2023-01-29T14:45:40.189Z,76.07
2023-01-29T14:48:11.826Z,75.57
2023-01-29T14:50:50.691Z,75.57
2023-01-29T14:53:23.697Z,75.89
2023-01-29T14:55:59.719Z,75.76
2023-01-29T14:58:53.201Z,75.81
2023-01-29T15:01:35.970Z,76.11
2023-01-29T15:04:18.357Z,76.12
2023-01-29T15:06:48.799Z,76.25
2023-01-29T15:09:55.628Z,76.23
2023-01-29T15:12:32.274Z,76.33
2023-01-29T15:15:41.815Z,76.38
2023-01-29T15:18:14.228Z,76.00
2023-01-29T15:20:45.423Z,76.31
2023-01-29T15:23:35.708Z,76.35
2023-01-29T15:26:09.177Z,76.62
2023-01-29T15:28:38.612Z,76.50
2023-01-29T15:31:12.256Z,76.31
2023-01-29T15:33:43.662Z,76.24
2023-01-29T15:36:29.681Z,76.15
2023-01-29T15:39:29.331Z,76.11
2023-01-29T15:42:31.573Z,76.31
2023-01-29T15:45:00.731Z,76.41
2023-01-29T15:47:31.635Z,76.31
2023-01-29T15:50:00.870Z,76.34
2023-01-29T15:52:33.264Z,76.11
2023-01-29T15:55:04.128Z,76.10
2023-01-29T15:57:41.008Z,75.88
2023-01-29T16:00:38.252Z,76.24
2023-01-29T16:03:15.853Z,76.33
2023-01-29T16:05:44.404Z,75.85
2023-01-29T16:08:16.194Z,75.86
2023-01-29T16:10:45.751Z,75.95
2023-01-29T16:13:27.091Z,75.91
2023-01-29T16:16:00.800Z,75.70
2023-01-29T16:18:47.707Z,75.93
2023-01-29T16:21:23.528Z,75.89
2023-01-29T16:24:06.420Z,75.95
2023-01-29T16:26:39.047Z,76.06
2023-01-29T16:29:09.955Z,75.81
2023-01-29T16:31:39.581Z,75.81
2023-01-29T16:34:31.477Z,76.01
2023-01-29T16:37:01.495Z,76.34
2023-01-29T16:39:36.446Z,76.34
2023-01-29T16:42:18.869Z,76.18
2023-01-29T16:44:50.800Z,76.12
2023-01-29T16:47:56.260Z,76.16
2023-01-29T16:50:36.107Z,76.38
2023-01-29T16:53:18.034Z,75.97
2023-01-29T16:55:47.281Z,76.12
2023-01-29T16:58:25.725Z,76.47
2023-01-29T17:01:04.754Z,76.53
2023-01-29T17:03:33.756Z,76.50
2023-01-29T17:06:25.256Z,76.45
2023-01-29T17:08:54.033Z,76.12
2023-01-29T17:11:33.771Z,76.54
2023-01-29T17:14:02.465Z,76.71
2023-01-29T17:16:33.537Z,76.16
2023-01-29T17:19:03.805Z,76.46
2023-01-29T17:21:35.034Z,76.28
2023-01-29T17:24:03.772Z,76.24
2023-01-29T17:26:32.626Z,76.16
2023-01-29T17:29:02.358Z,76.14
2023-01-29T17:31:31.409Z,76.29
2023-01-29T17:34:00.588Z,76.49
2023-01-29T17:36:31.497Z,76.63
2023-01-29T17:39:02.316Z,76.40
2023-01-29T17:41:31.725Z,76.07
2023-01-29T17:44:00.512Z,76.02
2023-01-29T17:46:30.224Z,76.20
2023-01-29T17:48:59.215Z,75.76
2023-01-29T17:51:28.308Z,75.89
2023-01-29T17:53:57.928Z,75.81
2023-01-29T17:56:29.198Z,75.62
2023-01-29T17:58:58.012Z,75.45
2023-01-29T18:01:26.752Z,75.29
2023-01-29T18:03:57.390Z,74.95
2023-01-29T18:06:28.746Z,74.56
2023-01-29T18:08:57.520Z,74.10
2023-01-29T18:11:27.417Z,74.05
2023-01-29T18:13:56.638Z,73.92
2023-01-29T18:16:27.107Z,73.80
2023-01-29T18:18:57.702Z,73.67
2023-01-29T18:21:28.433Z,73.51
2023-01-29T18:23:57.090Z,73.23
2023-01-29T18:26:26.841Z,73.44
2023-01-29T18:28:55.998Z,73.56
2023-01-29T18:31:25.973Z,73.71
2023-01-29T18:33:55.452Z,73.47
2023-01-29T18:36:24.043Z,73.65
2023-01-29T18:38:53.825Z,73.28
2023-01-29T18:41:23.424Z,73.03
2023-01-29T18:43:53.181Z,72.70
2023-01-29T18:46:23.581Z,72.82
2023-01-29T18:48:55.312Z,72.85
2023-01-29T18:51:24.922Z,73.02
2023-01-29T18:53:54.733Z,72.96
2023-01-29T18:56:23.836Z,72.92
2023-01-29T18:58:58.364Z,72.58
2023-01-29T19:01:27.810Z,72.62
2023-01-29T19:03:57.123Z,72.40
2023-01-29T19:06:25.947Z,72.47
2023-01-29T19:08:55.755Z,72.39
2023-01-29T19:11:24.954Z,72.38
2023-01-29T19:13:55.321Z,72.53
2023-01-29T19:16:26.217Z,72.03
2023-01-29T19:18:56.439Z,72.11
2023-01-29T19:21:26.812Z,72.03
2023-01-29T19:23:58.521Z,72.38
2023-01-29T19:26:27.384Z,72.38
2023-01-29T19:28:57.192Z,72.22
2023-01-29T19:31:28.211Z,72.48
2023-01-29T19:33:59.633Z,72.16
2023-01-29T19:36:28.921Z,72.02
2023-01-29T19:38:58.728Z,72.19
2023-01-29T19:41:28.124Z,72.12
2023-01-29T19:43:57.534Z,72.42
2023-01-29T19:46:26.520Z,72.43
2023-01-29T19:48:57.360Z,72.67
2023-01-29T19:51:28.245Z,73.15
2023-01-29T19:53:58.618Z,73.20
2023-01-29T19:56:29.664Z,72.87
2023-01-29T19:58:58.167Z,72.70
2023-01-29T20:01:30.558Z,72.51
2023-01-29T20:03:59.877Z,72.46
2023-01-29T20:06:31.408Z,72.42
2023-01-29T20:09:03.634Z,72.51
2023-01-29T20:11:34.998Z,72.67
2023-01-29T20:14:04.600Z,72.81
2023-01-29T20:16:34.250Z,72.86
2023-01-29T20:19:14.030Z,72.94
2023-01-29T20:21:46.840Z,73.05
2023-01-29T20:24:16.231Z,72.78
2023-01-29T20:26:53.150Z,72.83
2023-01-29T20:29:22.304Z,72.99
2023-01-29T20:31:52.314Z,73.03
2023-01-29T20:34:22.241Z,72.86
2023-01-29T20:36:51.124Z,73.09
2023-01-29T20:39:22.406Z,72.99
2023-01-29T20:41:53.943Z,73.13
2023-01-29T20:44:23.675Z,73.05
2023-01-29T20:46:52.339Z,73.33
2023-01-29T20:49:22.455Z,73.21
2023-01-29T20:51:52.357Z,72.99
2023-01-29T20:54:23.698Z,72.81
2023-01-29T20:56:55.292Z,72.67
2023-01-29T20:59:26.646Z,72.70
2023-01-29T21:01:56.612Z,72.69
2023-01-29T21:04:31.798Z,73.07
2023-01-29T21:07:01.872Z,73.07
2023-01-29T21:09:30.880Z,72.89
2023-01-29T21:12:00.094Z,72.88
2023-01-29T21:14:36.180Z,72.90
2023-01-29T21:17:05.327Z,72.61
2023-01-29T21:19:34.005Z,72.44
2023-01-29T21:22:02.924Z,72.40
2023-01-29T21:24:32.405Z,72.42
2023-01-29T21:27:02.519Z,72.16
2023-01-29T21:29:31.266Z,72.13
2023-01-29T21:32:00.047Z,72.61
2023-01-29T21:34:29.086Z,72.34
2023-01-29T21:36:57.981Z,72.18
2023-01-29T21:39:26.969Z,72.14
2023-01-29T21:42:14.258Z,71.89
2023-01-29T21:44:43.714Z,71.89
2023-01-29T21:47:15.356Z,71.94
2023-01-29T21:49:45.493Z,71.95
2023-01-29T21:52:15.202Z,72.14
2023-01-29T21:54:49.244Z,72.05
2023-01-29T21:57:18.079Z,72.36
2023-01-29T21:59:46.990Z,72.43
2023-01-29T22:02:23.084Z,72.50
2023-01-29T22:05:08.748Z,72.51
2023-01-29T22:07:46.206Z,72.48
2023-01-29T22:10:15.767Z,72.30
2023-01-29T22:12:46.278Z,72.28
2023-01-29T22:15:26.118Z,72.33
2023-01-29T22:17:55.895Z,72.49
2023-01-29T22:20:30.303Z,72.55
2023-01-29T22:23:00.777Z,72.62
2023-01-29T22:25:30.510Z,72.88
2023-01-29T22:27:59.140Z,72.58
2023-01-29T22:30:27.987Z,72.62
2023-01-29T22:32:57.330Z,72.59
2023-01-29T22:35:26.114Z,72.42
2023-01-29T22:37:55.114Z,72.13
2023-01-29T22:40:23.692Z,72.16
2023-01-29T22:42:52.324Z,72.23
2023-01-29T22:45:21.272Z,72.54
2023-01-29T22:47:52.000Z,72.64
2023-01-29T22:50:20.893Z,72.67
2023-01-29T22:52:54.125Z,72.82
2023-01-29T22:55:24.202Z,72.70
2023-01-29T22:57:53.813Z,72.38
2023-01-29T23:00:22.608Z,72.45
2023-01-29T23:02:51.092Z,72.36
2023-01-29T23:05:20.068Z,72.36
2023-01-29T23:07:50.709Z,72.40
2023-01-29T23:10:19.510Z,72.53
2023-01-29T23:12:48.382Z,72.40
2023-01-29T23:15:17.380Z,72.35
2023-01-29T23:17:46.164Z,72.45
2023-01-29T23:20:15.414Z,72.53
2023-01-29T23:22:44.562Z,72.52
2023-01-29T23:25:13.650Z,72.44
2023-01-29T23:27:42.339Z,72.39
2023-01-29T23:30:12.269Z,72.57
2023-01-29T23:32:40.831Z,72.47
2023-01-29T23:35:09.928Z,72.52
2023-01-29T23:37:38.307Z,72.78
2023-01-29T23:40:07.919Z,72.66
2023-01-29T23:42:36.604Z,72.79
2023-01-29T23:45:06.003Z,72.69
2023-01-29T23:47:34.691Z,72.87
2023-01-29T23:50:07.901Z,72.66
2023-01-29T23:52:37.494Z,72.58
2023-01-29T23:55:07.300Z,72.65
2023-01-29T23:57:36.189Z,72.63
